createdAt,value
2018-08-06T00:01:41.006Z,17.30
2018-08-06T00:04:10.034Z,17.30
2018-08-06T00:06:39.052Z,17.30
2018-08-06T00:09:08.390Z,17.40
2018-08-06T00:11:37.484Z,17.40
2018-08-06T00:14:06.655Z,17.50
2018-08-06T00:16:35.857Z,17.50
2018-08-06T00:19:06.018Z,17.40
2018-08-06T00:21:35.205Z,17.40
2018-08-06T00:24:05.465Z,17.30
2018-08-06T00:26:34.497Z,17.20
2018-08-06T00:29:04.286Z,17.20
2018-08-06T00:31:33.314Z,17.10
2018-08-06T00:34:02.394Z,17.10
2018-08-06T00:36:31.527Z,17.10
2018-08-06T00:39:00.487Z,17.10
2018-08-06T00:41:29.542Z,17.10
2018-08-06T00:43:58.528Z,17.10
2018-08-06T00:46:28.462Z,17.00
2018-08-06T00:48:57.660Z,16.90
2018-08-06T00:51:26.751Z,16.90
2018-08-06T00:53:56.272Z,16.90
2018-08-06T00:56:25.470Z,16.90
2018-08-06T00:58:54.536Z,16.80
2018-08-06T01:01:23.597Z,16.80
2018-08-06T01:03:52.778Z,16.80
2018-08-06T01:06:21.891Z,16.80
2018-08-06T01:08:50.985Z,16.80
2018-08-06T01:11:20.074Z,16.80
2018-08-06T01:13:49.342Z,16.80
2018-08-06T01:16:18.301Z,16.80
2018-08-06T01:18:47.369Z,16.80
2018-08-06T01:21:16.537Z,16.70
2018-08-06T01:23:46.058Z,16.70
2018-08-06T01:26:15.268Z,16.70
2018-08-06T01:28:45.465Z,16.70
2018-08-06T01:31:14.374Z,16.70
2018-08-06T01:36:14.211Z,16.60
2018-08-06T01:41:12.077Z,16.60
2018-08-06T01:43:41.064Z,16.50
2018-08-06T01:46:10.049Z,16.50
2018-08-06T01:48:39.022Z,16.50
2018-08-06T01:51:08.098Z,16.50
2018-08-06T01:53:37.906Z,16.40
2018-08-06T01:56:07.046Z,16.40
2018-08-06T01:58:36.053Z,16.40
2018-08-06T02:01:05.014Z,16.40
2018-08-06T02:03:34.309Z,16.40
2018-08-06T02:06:03.488Z,16.40
2018-08-06T02:08:32.621Z,16.40
2018-08-06T02:11:01.795Z,16.40
2018-08-06T02:13:30.847Z,16.30
2018-08-06T02:15:59.978Z,16.20
2018-08-06T02:18:29.138Z,16.20
2018-08-06T02:20:58.105Z,16.20
2018-08-06T02:23:27.162Z,16.20
2018-08-06T02:25:56.231Z,16.20
2018-08-06T02:28:25.308Z,16.20
2018-08-06T02:30:54.747Z,16.10
2018-08-06T02:33:23.736Z,16.10
2018-08-06T02:35:52.881Z,16.10
2018-08-06T02:38:21.985Z,16.10
2018-08-06T02:40:51.199Z,16.10
2018-08-06T02:43:20.275Z,16.10
2018-08-06T02:45:49.310Z,16.10
2018-08-06T02:48:18.407Z,16.00
2018-08-06T02:50:47.454Z,16.00
2018-08-06T02:53:16.612Z,16.00
2018-08-06T02:55:45.757Z,16.00
2018-08-06T02:58:14.918Z,15.90
2018-08-06T03:00:43.830Z,15.90
2018-08-06T03:03:13.030Z,15.90
2018-08-06T03:05:41.991Z,15.90
2018-08-06T03:08:11.277Z,15.90
2018-08-06T03:10:41.085Z,15.90
2018-08-06T03:13:10.228Z,15.90
2018-08-06T03:15:39.385Z,15.90
2018-08-06T03:18:09.605Z,15.80
2018-08-06T03:20:39.333Z,15.80
2018-08-06T03:23:10.344Z,15.90
2018-08-06T03:25:40.179Z,15.80
2018-08-06T03:30:37.731Z,15.80
2018-08-06T03:33:06.835Z,15.80
2018-08-06T03:35:35.836Z,15.80
2018-08-06T03:38:04.776Z,15.80
2018-08-06T03:40:33.768Z,15.90
2018-08-06T03:43:02.924Z,15.90
2018-08-06T03:45:32.013Z,15.80
2018-08-06T03:48:00.930Z,15.90
2018-08-06T03:50:30.046Z,15.90
2018-08-06T03:52:59.406Z,15.80
2018-08-06T03:55:28.408Z,15.90
2018-08-06T03:57:57.538Z,15.80
2018-08-06T04:00:26.575Z,15.80
2018-08-06T04:02:55.799Z,15.80
2018-08-06T04:05:28.692Z,15.90
2018-08-06T04:07:57.630Z,15.80
2018-08-06T04:10:26.701Z,15.80
2018-08-06T04:12:55.721Z,15.90
2018-08-06T04:15:24.843Z,15.90
2018-08-06T04:17:53.973Z,15.90
2018-08-06T04:20:23.026Z,16.00
2018-08-06T04:22:52.654Z,16.00
2018-08-06T04:25:22.872Z,16.00
2018-08-06T04:27:51.976Z,16.10
2018-08-06T04:30:22.901Z,16.10
2018-08-06T04:32:56.128Z,16.20
2018-08-06T04:35:25.325Z,16.20
2018-08-06T04:37:56.849Z,16.40
2018-08-06T04:40:26.110Z,17.90
2018-08-06T04:42:56.293Z,19.50
2018-08-06T04:45:26.589Z,20.20
2018-08-06T04:47:55.761Z,20.50
2018-08-06T04:50:26.672Z,20.80
2018-08-06T04:52:57.819Z,21.20
2018-08-06T04:55:26.978Z,21.60
2018-08-06T04:57:56.150Z,22.00
2018-08-06T05:00:25.609Z,22.40
2018-08-06T05:02:54.815Z,20.90
2018-08-06T05:05:30.091Z,19.70
2018-08-06T05:07:59.160Z,18.90
2018-08-06T05:10:35.094Z,18.50
2018-08-06T05:13:04.361Z,18.20
2018-08-06T05:15:34.493Z,18.00
2018-08-06T05:18:06.992Z,17.90
2018-08-06T05:20:36.161Z,17.70
2018-08-06T05:23:05.276Z,17.50
2018-08-06T05:25:34.264Z,17.50
2018-08-06T05:28:03.470Z,17.40
2018-08-06T05:30:32.670Z,17.40
2018-08-06T05:33:01.839Z,17.40
2018-08-06T05:35:31.222Z,17.40
2018-08-06T05:38:00.258Z,17.40
2018-08-06T05:40:29.452Z,17.40
2018-08-06T05:43:01.320Z,17.40
2018-08-06T05:45:31.116Z,17.50
2018-08-06T05:48:00.702Z,17.50
2018-08-06T05:50:29.894Z,17.50
2018-08-06T05:52:58.984Z,17.50
2018-08-06T05:55:28.026Z,17.60
2018-08-06T05:57:57.485Z,17.70
2018-08-06T06:00:26.742Z,17.70
2018-08-06T06:05:24.446Z,17.80
2018-08-06T06:07:53.559Z,17.70
2018-08-06T06:10:34.950Z,17.80
2018-08-06T06:13:04.899Z,17.90
2018-08-06T06:15:34.090Z,18.00
2018-08-06T06:18:03.227Z,18.00
2018-08-06T06:20:32.396Z,18.00
2018-08-06T06:23:01.463Z,18.00
2018-08-06T06:25:30.797Z,18.00
2018-08-06T06:27:59.967Z,18.10
2018-08-06T06:30:29.173Z,18.20
2018-08-06T06:32:58.343Z,18.20
2018-08-06T06:35:28.426Z,18.30
2018-08-06T06:37:57.747Z,18.30
2018-08-06T06:40:26.999Z,18.30
2018-08-06T06:42:56.143Z,18.40
2018-08-06T06:45:25.253Z,18.40
2018-08-06T06:47:54.325Z,18.40
2018-08-06T06:50:23.348Z,18.40
2018-08-06T06:52:52.470Z,18.50
2018-08-06T06:58:07.829Z,18.60
2018-08-06T07:00:36.873Z,18.60
2018-08-06T07:03:06.790Z,18.70
2018-08-06T07:05:35.994Z,18.80
2018-08-06T07:08:05.066Z,18.90
2018-08-06T07:10:34.175Z,19.00
2018-08-06T07:13:03.411Z,19.10
2018-08-06T07:15:32.615Z,19.20
2018-08-06T07:18:01.655Z,19.30
2018-08-06T07:20:30.824Z,19.40
2018-08-06T07:22:59.943Z,19.40
2018-08-06T07:25:29.201Z,19.50
2018-08-06T07:27:58.202Z,19.50
2018-08-06T07:30:28.878Z,19.60
2018-08-06T07:32:58.050Z,19.60
2018-08-06T07:35:27.328Z,19.60
2018-08-06T07:37:56.412Z,19.70
2018-08-06T07:40:25.409Z,19.70
2018-08-06T07:42:54.598Z,19.80
2018-08-06T07:45:23.725Z,19.80
2018-08-06T07:47:52.753Z,19.90
2018-08-06T07:50:21.891Z,20.00
2018-08-06T07:52:51.081Z,20.00
2018-08-06T07:55:20.052Z,20.00
2018-08-06T07:57:49.184Z,20.10
2018-08-06T08:00:19.576Z,20.20
2018-08-06T08:02:48.742Z,20.30
2018-08-06T08:05:18.782Z,20.40
2018-08-06T08:07:48.554Z,20.50
2018-08-06T08:10:19.666Z,20.50
2018-08-06T08:12:48.902Z,20.60
2018-08-06T08:15:20.611Z,20.60
2018-08-06T08:17:49.753Z,20.70
2018-08-06T08:20:19.193Z,20.70
2018-08-06T08:22:48.296Z,20.80
2018-08-06T08:25:20.590Z,20.80
2018-08-06T08:27:49.639Z,20.90
2018-08-06T08:30:20.206Z,20.90
2018-08-06T08:32:50.008Z,21.10
2018-08-06T08:35:19.177Z,21.10
2018-08-06T08:37:48.193Z,21.20
2018-08-06T08:40:18.754Z,21.20
2018-08-06T08:42:47.821Z,21.20
2018-08-06T08:45:18.000Z,21.30
2018-08-06T08:47:47.150Z,21.30
2018-08-06T08:50:18.725Z,21.30
2018-08-06T08:52:47.857Z,21.30
2018-08-06T08:55:18.149Z,21.40
2018-08-06T08:57:47.342Z,21.50
2018-08-06T09:00:21.076Z,21.60
2018-08-06T09:02:51.082Z,21.70
2018-08-06T09:05:20.483Z,21.80
2018-08-06T09:07:50.777Z,21.80
2018-08-06T09:10:20.426Z,21.90
2018-08-06T09:12:49.476Z,21.90
2018-08-06T09:15:21.144Z,22.00
2018-08-06T09:17:50.325Z,22.10
2018-08-06T09:20:19.417Z,22.10
2018-08-06T09:22:48.693Z,22.30
2018-08-06T09:25:17.832Z,22.30
2018-08-06T09:27:48.279Z,22.40
2018-08-06T09:30:19.685Z,22.50
2018-08-06T09:32:50.143Z,22.60
2018-08-06T09:35:20.316Z,22.60
2018-08-06T09:37:49.423Z,22.60
2018-08-06T09:40:20.293Z,22.60
2018-08-06T09:42:49.787Z,22.70
2018-08-06T09:45:20.014Z,22.80
2018-08-06T09:47:50.359Z,22.80
2018-08-06T09:50:20.386Z,22.80
2018-08-06T09:52:52.098Z,22.80
2018-08-06T09:55:24.421Z,23.00
2018-08-06T09:57:54.341Z,23.00
2018-08-06T10:00:28.801Z,23.00
2018-08-06T10:02:59.321Z,23.10
2018-08-06T10:05:29.156Z,23.20
2018-08-06T10:07:58.466Z,23.30
2018-08-06T10:10:27.547Z,23.30
2018-08-06T10:12:56.989Z,23.30
2018-08-06T10:15:28.058Z,23.40
2018-08-06T10:17:58.341Z,23.50
2018-08-06T10:20:27.520Z,23.50
2018-08-06T10:22:56.625Z,23.50
2018-08-06T10:25:26.622Z,23.60
2018-08-06T10:27:55.700Z,23.70
2018-08-06T10:30:24.762Z,23.90
2018-08-06T10:32:53.927Z,23.90
2018-08-06T10:35:23.176Z,23.80
2018-08-06T10:37:52.394Z,23.70
2018-08-06T10:40:22.541Z,23.80
2018-08-06T10:42:51.797Z,23.90
2018-08-06T10:45:22.219Z,24.00
2018-08-06T10:47:52.449Z,24.20
2018-08-06T10:50:21.477Z,24.30
2018-08-06T10:52:50.685Z,24.30
2018-08-06T10:55:19.792Z,24.30
2018-08-06T10:57:49.010Z,24.30
2018-08-06T11:00:20.447Z,24.40
2018-08-06T11:02:50.144Z,24.50
2018-08-06T11:05:19.706Z,24.60
2018-08-06T11:07:48.843Z,24.60
2018-08-06T11:10:22.277Z,24.60
2018-08-06T11:12:52.334Z,24.70
2018-08-06T11:15:22.958Z,24.80
2018-08-06T11:17:52.057Z,24.90
2018-08-06T11:20:21.690Z,25.00
2018-08-06T11:22:51.200Z,25.10
2018-08-06T11:25:21.922Z,25.30
2018-08-06T11:27:51.458Z,25.30
2018-08-06T11:30:21.628Z,25.30
2018-08-06T11:32:51.382Z,25.40
2018-08-06T11:35:21.565Z,25.40
2018-08-06T11:37:51.733Z,25.20
2018-08-06T11:40:20.835Z,25.10
2018-08-06T11:42:50.841Z,25.10
2018-08-06T11:45:21.687Z,25.20
2018-08-06T11:47:51.130Z,25.40
2018-08-06T11:50:20.432Z,25.50
2018-08-06T11:52:49.781Z,25.70
2018-08-06T11:55:19.066Z,25.80
2018-08-06T11:57:48.239Z,25.90
2018-08-06T12:00:19.427Z,26.00
2018-08-06T12:02:48.580Z,26.00
2018-08-06T12:05:17.882Z,26.10
2018-08-06T12:07:47.830Z,26.10
2018-08-06T12:10:18.212Z,26.10
2018-08-06T12:12:48.611Z,26.20
2018-08-06T12:15:17.746Z,26.30
2018-08-06T12:17:46.928Z,26.30
2018-08-06T12:20:24.338Z,26.30
2018-08-06T12:22:53.538Z,26.40
2018-08-06T12:25:22.758Z,26.40
2018-08-06T12:27:52.377Z,26.40
2018-08-06T12:30:22.894Z,26.50
2018-08-06T12:32:53.149Z,26.70
2018-08-06T12:37:51.124Z,26.70
2018-08-06T12:40:21.628Z,26.80
2018-08-06T12:42:51.070Z,26.90
2018-08-06T12:45:20.267Z,26.90
2018-08-06T12:47:49.335Z,27.00
2018-08-06T12:50:18.585Z,27.00
2018-08-06T12:52:47.868Z,27.00
2018-08-06T12:55:18.182Z,27.10
2018-08-06T13:00:24.508Z,27.10
2018-08-06T13:02:54.021Z,27.20
2018-08-06T13:05:23.872Z,27.20
2018-08-06T13:07:53.169Z,27.30
2018-08-06T13:10:22.548Z,27.30
2018-08-06T13:12:52.294Z,27.30
2018-08-06T13:15:21.338Z,27.30
2018-08-06T13:17:50.722Z,27.30
2018-08-06T13:20:19.930Z,27.40
2018-08-06T13:22:49.096Z,27.40
2018-08-06T13:25:18.787Z,27.40
2018-08-06T13:27:47.799Z,27.40
2018-08-06T13:30:16.927Z,27.50
2018-08-06T13:32:46.313Z,27.50
2018-08-06T13:35:15.876Z,27.50
2018-08-06T13:37:45.971Z,27.60
2018-08-06T13:40:15.606Z,27.60
2018-08-06T13:42:45.565Z,27.70
2018-08-06T13:45:14.824Z,27.70
2018-08-06T13:47:44.025Z,27.60
2018-08-06T13:52:43.238Z,27.70
2018-08-06T13:55:18.449Z,27.70
2018-08-06T13:57:50.980Z,27.70
2018-08-06T14:00:20.609Z,27.70
2018-08-06T14:02:50.940Z,27.70
2018-08-06T14:05:20.416Z,27.80
2018-08-06T14:07:50.185Z,27.90
2018-08-06T14:10:19.484Z,28.00
2018-08-06T14:12:48.550Z,28.00
2018-08-06T14:15:17.983Z,28.00
2018-08-06T14:17:47.078Z,28.00
2018-08-06T14:20:18.774Z,28.00
2018-08-06T14:22:47.866Z,28.00
2018-08-06T14:25:17.014Z,28.10
2018-08-06T14:30:16.280Z,28.30
2018-08-06T14:32:48.637Z,28.30
2018-08-06T14:35:18.325Z,28.30
2018-08-06T14:37:47.515Z,28.40
2018-08-06T14:40:17.847Z,28.40
2018-08-06T14:42:47.507Z,28.40
2018-08-06T14:45:17.001Z,28.40
2018-08-06T14:47:46.807Z,28.40
2018-08-06T14:50:16.221Z,28.40
2018-08-06T14:52:45.253Z,28.40
2018-08-06T14:55:14.481Z,28.40
2018-08-06T14:57:43.631Z,28.30
2018-08-06T15:00:21.620Z,28.40
2018-08-06T15:02:53.334Z,28.50
2018-08-06T15:05:22.793Z,28.50
2018-08-06T15:07:55.248Z,28.70
2018-08-06T15:10:25.567Z,29.00
2018-08-06T15:12:54.892Z,29.00
2018-08-06T15:15:24.291Z,29.00
2018-08-06T15:17:54.057Z,29.10
2018-08-06T15:20:23.161Z,29.10
2018-08-06T15:25:22.950Z,29.10
2018-08-06T15:27:52.209Z,29.10
2018-08-06T15:30:22.505Z,29.20
2018-08-06T15:32:52.106Z,29.20
2018-08-06T15:35:22.445Z,29.40
2018-08-06T15:37:51.559Z,29.60
2018-08-06T15:40:21.344Z,29.60
2018-08-06T15:42:50.861Z,29.70
2018-08-06T15:45:20.280Z,29.90
2018-08-06T15:47:49.333Z,30.00
2018-08-06T15:50:20.225Z,30.10
2018-08-06T15:52:49.439Z,30.20
2018-08-06T15:55:18.595Z,30.10
2018-08-06T15:57:47.928Z,30.20
2018-08-06T16:00:19.540Z,30.30
2018-08-06T16:02:49.763Z,30.30
2018-08-06T16:05:23.810Z,30.30
2018-08-06T16:07:53.142Z,30.40
2018-08-06T16:12:51.560Z,30.40
2018-08-06T16:15:20.718Z,30.40
2018-08-06T16:17:49.833Z,30.40
2018-08-06T16:20:19.531Z,30.50
2018-08-06T16:22:49.036Z,30.50
2018-08-06T16:25:18.170Z,30.40
2018-08-06T16:27:50.362Z,30.50
2018-08-06T16:30:22.599Z,30.50
2018-08-06T16:32:51.824Z,30.50
2018-08-06T16:35:22.618Z,30.60
2018-08-06T16:37:53.367Z,30.70
2018-08-06T16:40:22.996Z,30.70
2018-08-06T16:42:52.437Z,30.80
2018-08-06T16:45:21.989Z,30.70
2018-08-06T16:47:51.450Z,30.80
2018-08-06T16:50:20.794Z,30.90
2018-08-06T16:52:50.298Z,31.10
2018-08-06T16:55:19.436Z,31.20
2018-08-06T16:57:48.880Z,31.10
2018-08-06T17:00:19.552Z,31.10
2018-08-06T17:02:49.590Z,31.00
2018-08-06T17:05:18.616Z,30.90
2018-08-06T17:07:49.602Z,31.00
2018-08-06T17:10:19.747Z,31.10
2018-08-06T17:13:00.706Z,31.10
2018-08-06T17:15:32.627Z,31.10
2018-08-06T17:18:11.639Z,31.00
2018-08-06T17:20:51.517Z,31.00
2018-08-06T17:23:22.138Z,30.90
2018-08-06T17:26:01.744Z,30.90
2018-08-06T17:31:22.027Z,30.80
2018-08-06T17:33:52.277Z,31.00
2018-08-06T17:38:53.097Z,31.20
2018-08-06T17:41:22.286Z,31.20
2018-08-06T17:43:51.531Z,31.10
2018-08-06T17:46:20.669Z,31.00
2018-08-06T17:48:49.907Z,30.80
2018-08-06T17:51:19.062Z,30.60
2018-08-06T17:53:51.925Z,30.40
2018-08-06T17:58:50.299Z,30.00
2018-08-06T18:01:19.584Z,29.80
2018-08-06T18:03:49.846Z,29.60
2018-08-06T18:06:27.056Z,29.30
2018-08-06T18:09:00.059Z,29.20
2018-08-06T18:11:32.859Z,29.00
2018-08-06T18:14:02.359Z,28.80
2018-08-06T18:16:32.647Z,28.70
2018-08-06T18:19:01.794Z,28.60
2018-08-06T18:21:31.114Z,28.50
2018-08-06T18:24:00.684Z,28.30
2018-08-06T18:26:29.740Z,28.30
2018-08-06T18:28:59.050Z,28.20
2018-08-06T18:31:28.238Z,28.20
2018-08-06T18:33:57.369Z,28.20
2018-08-06T18:36:26.445Z,28.10
2018-08-06T18:38:55.931Z,28.10
2018-08-06T18:41:25.235Z,28.00
2018-08-06T18:43:54.484Z,27.80
2018-08-06T18:46:23.664Z,27.70
2018-08-06T18:48:56.132Z,27.60
2018-08-06T18:51:25.272Z,27.40
2018-08-06T18:53:54.504Z,27.40
2018-08-06T18:56:23.491Z,27.40
2018-08-06T18:58:53.514Z,27.40
2018-08-06T19:01:22.555Z,27.40
2018-08-06T19:03:52.047Z,27.30
2018-08-06T19:06:21.753Z,27.20
2018-08-06T19:08:53.006Z,27.20
2018-08-06T19:11:22.168Z,27.10
2018-08-06T19:13:56.691Z,27.10
2018-08-06T19:16:25.648Z,27.00
2018-08-06T19:19:00.018Z,26.80
2018-08-06T19:21:29.198Z,26.70
2018-08-06T19:24:09.525Z,26.60
2018-08-06T19:26:39.363Z,26.50
2018-08-06T19:29:10.341Z,26.40
2018-08-06T19:31:40.087Z,26.40
2018-08-06T19:34:09.409Z,26.30
2018-08-06T19:36:57.697Z,26.20
2018-08-06T19:39:26.829Z,26.20
2018-08-06T19:41:56.875Z,26.10
2018-08-06T19:44:26.139Z,26.00
2018-08-06T19:49:29.811Z,26.00
2018-08-06T19:51:58.990Z,26.00
2018-08-06T19:54:29.137Z,26.00
2018-08-06T19:56:58.405Z,26.00
2018-08-06T19:59:27.495Z,25.90
2018-08-06T20:01:57.048Z,25.80
2018-08-06T20:04:26.214Z,25.80
2018-08-06T20:06:56.011Z,25.70
2018-08-06T20:09:25.288Z,25.50
2018-08-06T20:14:23.150Z,25.30
2018-08-06T20:16:52.326Z,25.20
2018-08-06T20:19:22.447Z,25.30
2018-08-06T20:21:52.441Z,25.20
2018-08-06T20:24:21.662Z,25.20
2018-08-06T20:26:50.790Z,25.20
2018-08-06T20:29:24.634Z,25.10
2018-08-06T20:31:59.924Z,25.00
2018-08-06T20:34:29.295Z,24.90
2018-08-06T20:39:28.714Z,24.80
2018-08-06T20:42:05.850Z,24.90
2018-08-06T20:44:35.763Z,24.90
2018-08-06T20:52:15.692Z,24.90
2018-08-06T20:54:46.209Z,24.80
2018-08-06T20:57:16.638Z,24.60
2018-08-06T20:59:45.961Z,24.40
2018-08-06T21:02:17.891Z,24.30
2018-08-06T21:04:48.242Z,24.30
2018-08-06T21:07:20.914Z,24.30
2018-08-06T21:09:50.231Z,24.10
2018-08-06T21:12:20.031Z,24.00
2018-08-06T21:17:28.411Z,23.80
2018-08-06T21:19:57.409Z,23.80
2018-08-06T21:22:27.411Z,23.80
2018-08-06T21:24:57.572Z,23.90
2018-08-06T21:27:29.454Z,23.80
2018-08-06T21:30:01.183Z,23.80
2018-08-06T21:32:32.298Z,23.90
2018-08-06T21:35:01.588Z,23.80
2018-08-06T21:37:31.308Z,23.80
2018-08-06T21:40:00.510Z,23.90
2018-08-06T21:43:01.214Z,23.80
2018-08-06T21:45:34.447Z,23.80
2018-08-06T21:48:05.667Z,23.70
2018-08-06T21:50:34.930Z,23.60
2018-08-06T21:53:04.613Z,23.50
2018-08-06T21:55:35.153Z,23.40
2018-08-06T21:58:11.727Z,23.30
2018-08-06T22:00:48.772Z,23.20
2018-08-06T22:03:18.702Z,23.00
2018-08-06T22:05:48.129Z,23.00
2018-08-06T22:08:17.475Z,23.00
2018-08-06T22:10:48.460Z,23.00
2018-08-06T22:13:17.688Z,22.90
2018-08-06T22:15:47.256Z,22.90
2018-08-06T22:18:17.406Z,22.80
2018-08-06T22:20:48.201Z,22.80
2018-08-06T22:23:17.669Z,22.70
2018-08-06T22:26:15.040Z,22.70
2018-08-06T22:28:44.646Z,22.60
2018-08-06T22:31:13.918Z,22.50
2018-08-06T22:33:43.686Z,22.50
2018-08-06T22:36:13.634Z,22.40
2018-08-06T22:38:43.599Z,22.40
2018-08-06T22:41:12.785Z,22.40
2018-08-06T22:43:43.958Z,22.30
2018-08-06T22:46:16.177Z,22.30
2018-08-06T22:48:46.861Z,22.20
2018-08-06T22:51:16.950Z,22.20
2018-08-06T22:53:51.000Z,22.10
2018-08-06T22:56:34.166Z,22.00
2018-08-06T22:59:09.315Z,21.90
2018-08-06T23:04:40.245Z,21.70
2018-08-06T23:07:09.551Z,21.70
2018-08-06T23:10:51.944Z,21.70
2018-08-06T23:16:03.386Z,21.60
2018-08-06T23:23:41.240Z,21.60
2018-08-06T23:26:10.592Z,21.60
2018-08-06T23:28:44.202Z,21.60
2018-08-06T23:31:14.598Z,21.50
2018-08-06T23:33:43.815Z,21.50
2018-08-06T23:36:13.069Z,21.50
2018-08-06T23:38:42.266Z,21.50
2018-08-06T23:41:17.395Z,21.40
2018-08-06T23:43:46.505Z,21.40
2018-08-06T23:46:15.579Z,21.30
2018-08-06T23:48:45.410Z,21.30
2018-08-06T23:51:14.702Z,21.30
2018-08-06T23:53:44.150Z,21.20
2018-08-06T23:56:14.649Z,21.10
2018-08-06T23:58:43.780Z,21.10
